Time;durP1;ratioP1;P1;durP2;ratioP2;P2;SDS_P1;SDS_P2;PMS_P1;PMS_P2;Temp;Humidity;BMP_temperature;BMP_pressure;BME280_temperature;BME280_humidity;BME280_pressure;Samples;Min_cycle;Max_cycle;Signal;HPM_P1;HPM_P2
2022/09/08 00:12:13;;;;;;;14.15;7.45;;;;;;;;;;4316117;33;20076;-69
2022/09/08 00:27:28;;;;;;;16.37;8.60;;;;;;;;;;4299969;33;20042;-70
2022/09/08 00:30:06;;;;;;;20.65;9.23;;;;;;;;;;4300424;33;20324;-70
2022/09/08 00:33:02;;;;;;;;;;;;;;;;;;;;;
2022/09/08 00:38:24;;;;;;;24.27;10.07;;;;;;;;;;4285039;28;21646;-69
2022/09/08 00:40:52;;;;;;;20.55;9.77;;;;;;;;;;4255338;33;20037;-69
2022/09/08 00:43:35;;;;;;;24.15;10.05;;;;;;;;;;4275398;33;20033;-69
2022/09/08 00:46:21;;;;;;;21.35;10.05;;;;;;;;;;4352507;32;20027;-69
2022/09/08 00:48:54;;;;;;;15.52;8.73;;;;;;;;;;4373686;32;20067;-69
2022/09/08 00:51:20;;;;;;;23.90;11.15;;;;;;;;;;4372417;32;20019;-70
2022/09/08 00:53:46;;;;;;;24.35;10.70;;;;;;;;;;4373967;32;20080;-69
2022/09/08 00:56:12;;;;;;;22.48;11.48;;;;;;;;;;4373829;32;20486;-69
2022/09/08 00:58:38;;;;;;;19.83;11.65;;;;;;;;;;4375039;32;20079;-69
2022/09/08 01:01:04;;;;;;;13.60;10.35;;;;;;;;;;4362787;32;20031;-69
2022/09/08 01:03:31;;;;;;;17.55;10.57;;;;;;;;;;4359639;32;20098;-68
2022/09/08 01:05:57;;;;;;;22.35;11.20;;;;;;;;;;4358775;33;20035;-69
2022/09/08 01:14:45;;;;;;;17.87;11.25;;;;;;;;;;4335170;32;20028;-69
2022/09/08 01:17:14;;;;;;;23.00;13.45;;;;;;;;;;4359139;33;20049;-69
2022/09/08 01:19:39;;;;;;;19.87;12.57;;;;;;;;;;4360419;33;20031;-69
2022/09/08 01:22:09;;;;;;;20.60;13.82;;;;;;;;;;4358371;32;20053;-69
2022/09/08 01:24:41;;;;;;;23.45;14.90;;;;;;;;;;4358410;33;20093;-69
2022/09/08 01:27:24;;;;;;;21.75;13.60;;;;;;;;;;4359156;33;20035;-69
2022/09/08 01:29:52;;;;;;;20.95;14.10;;;;;;;;;;4359008;32;20019;-70
2022/09/08 01:32:18;;;;;;;21.20;15.27;;;;;;;;;;4359715;32;20023;-71
2022/09/08 01:34:44;;;;;;;27.87;15.95;;;;;;;;;;4357573;33;20040;-69
2022/09/08 01:37:10;;;;;;;22.80;13.80;;;;;;;;;;4360126;33;20094;-70
2022/09/08 01:39:35;;;;;;;21.95;14.63;;;;;;;;;;4368571;32;20077;-70
2022/09/08 01:42:00;;;;;;;25.25;15.20;;;;;;;;;;4375167;32;20072;-68
2022/09/08 01:44:26;;;;;;;21.12;14.18;;;;;;;;;;4360981;32;20035;-70
2022/09/08 01:46:51;;;;;;;24.35;14.55;;;;;;;;;;4381390;32;20053;-68
2022/09/08 01:49:16;;;;;;;26.65;14.52;;;;;;;;;;4389165;32;20031;-69
2022/09/08 01:51:42;;;;;;;26.90;15.23;;;;;;;;;;4387608;32;20042;-68
2022/09/08 01:54:07;;;;;;;22.37;14.70;;;;;;;;;;4374326;32;20427;-68
2022/09/08 01:56:32;;;;;;;24.50;15.43;;;;;;;;;;4388515;32;20401;-68
2022/09/08 01:58:57;;;;;;;21.77;14.50;;;;;;;;;;4389786;32;20149;-69
2022/09/08 02:01:23;;;;;;;21.02;14.85;;;;;;;;;;4388471;32;20103;-68
2022/09/08 02:03:48;;;;;;;23.17;16.20;;;;;;;;;;4390101;32;20034;-68
2022/09/08 02:06:13;;;;;;;26.15;16.95;;;;;;;;;;4391076;32;20057;-68
2022/09/08 02:08:38;;;;;;;24.08;15.40;;;;;;;;;;4391791;32;20217;-69
2022/09/08 02:11:04;;;;;;;28.42;16.25;;;;;;;;;;4390716;32;20520;-69
2022/09/08 02:13:29;;;;;;;25.65;16.10;;;;;;;;;;4391157;32;20046;-69
2022/09/08 02:15:59;;;;;;;18.42;14.27;;;;;;;;;;4392811;32;20031;-69
2022/09/08 02:18:24;;;;;;;17.30;14.73;;;;;;;;;;4378562;32;20070;-69
2022/09/08 02:20:49;;;;;;;19.58;13.27;;;;;;;;;;4392404;32;20031;-70
2022/09/08 02:23:15;;;;;;;18.92;13.95;;;;;;;;;;4377352;32;20027;-68
2022/09/08 02:25:40;;;;;;;21.85;13.35;;;;;;;;;;4392592;32;20359;-68
2022/09/08 02:28:05;;;;;;;21.25;14.15;;;;;;;;;;4392258;32;20405;-68
2022/09/08 02:30:31;;;;;;;22.87;14.52;;;;;;;;;;4392104;32;20027;-69
2022/09/08 02:32:56;;;;;;;24.08;14.87;;;;;;;;;;4376956;32;20065;-68
2022/09/08 02:35:22;;;;;;;21.10;13.60;;;;;;;;;;4392637;32;20381;-69
2022/09/08 02:37:47;;;;;;;20.67;14.15;;;;;;;;;;4390175;32;20045;-68
2022/09/08 02:40:12;;;;;;;22.87;13.93;;;;;;;;;;4390076;32;20035;-69
2022/09/08 02:42:39;;;;;;;14.45;11.80;;;;;;;;;;4376799;32;20149;-68
2022/09/08 02:45:04;;;;;;;39.92;14.43;;;;;;;;;;4389942;32;20213;-68
2022/09/08 02:47:32;;;;;;;15.45;9.73;;;;;;;;;;4378583;32;20060;-69
2022/09/08 02:49:57;;;;;;;17.12;9.90;;;;;;;;;;4371880;32;20034;-68
2022/09/08 02:52:22;;;;;;;16.30;8.02;;;;;;;;;;4375378;32;20047;-68
2022/09/08 02:54:47;;;;;;;14.20;6.15;;;;;;;;;;4377064;32;20035;-68
2022/09/08 02:57:13;;;;;;;12.93;5.85;;;;;;;;;;4374734;32;20119;-69
2022/09/08 02:59:38;;;;;;;12.43;6.22;;;;;;;;;;4378189;32;20115;-68
2022/09/08 03:02:03;;;;;;;11.60;5.07;;;;;;;;;;4391321;32;20049;-69
2022/09/08 03:04:28;;;;;;;14.02;5.97;;;;;;;;;;4390990;32;20126;-68
2022/09/08 03:06:54;;;;;;;7.37;4.28;;;;;;;;;;4390073;32;20090;-68
2022/09/08 03:09:19;;;;;;;8.48;4.20;;;;;;;;;;4390575;32;20053;-67
2022/09/08 03:11:44;;;;;;;10.52;4.37;;;;;;;;;;4390615;32;20055;-68
2022/09/08 03:14:09;;;;;;;9.75;4.37;;;;;;;;;;4390424;32;20019;-68
2022/09/08 03:16:35;;;;;;;11.43;3.92;;;;;;;;;;4392213;32;20441;-69
2022/09/08 03:19:00;;;;;;;7.62;3.87;;;;;;;;;;4392223;32;20068;-69
2022/09/08 03:21:25;;;;;;;13.60;4.22;;;;;;;;;;4376276;32;20073;-69
2022/09/08 03:23:50;;;;;;;12.00;4.53;;;;;;;;;;4376925;32;20019;-67
2022/09/08 03:26:17;;;;;;;8.40;3.73;;;;;;;;;;4390985;32;20018;-68
2022/09/08 03:28:43;;;;;;;11.70;4.20;;;;;;;;;;4390459;32;20153;-68
2022/09/08 03:31:09;;;;;;;8.43;3.90;;;;;;;;;;4389192;32;20085;-68
2022/09/08 03:33:34;;;;;;;13.77;4.95;;;;;;;;;;4390088;32;20050;-68
2022/09/08 03:36:00;;;;;;;11.30;4.05;;;;;;;;;;4389458;32;20056;-69
2022/09/08 03:38:25;;;;;;;12.07;3.28;;;;;;;;;;4391028;32;20420;-68
2022/09/08 03:40:51;;;;;;;8.32;3.47;;;;;;;;;;4377220;32;20144;-69
2022/09/08 03:43:16;;;;;;;11.23;4.07;;;;;;;;;;4391142;32;20034;-68
2022/09/08 03:45:42;;;;;;;11.77;4.32;;;;;;;;;;4389625;32;20022;-69
2022/09/08 03:48:08;;;;;;;10.27;4.40;;;;;;;;;;4391253;32;20035;-69
2022/09/08 03:50:33;;;;;;;10.18;4.40;;;;;;;;;;4390864;32;20026;-69
2022/09/08 03:52:58;;;;;;;10.30;4.85;;;;;;;;;;4390036;32;20114;-69
2022/09/08 03:55:23;;;;;;;13.73;6.82;;;;;;;;;;4391502;32;20061;-69
2022/09/08 03:57:49;;;;;;;13.88;5.80;;;;;;;;;;4390406;32;20018;-68
2022/09/08 04:00:15;;;;;;;9.48;4.72;;;;;;;;;;4390220;32;20417;-68
2022/09/08 04:02:40;;;;;;;12.70;4.47;;;;;;;;;;4390895;32;20034;-70
2022/09/08 04:05:06;;;;;;;18.98;5.37;;;;;;;;;;4391812;32;20023;-70
2022/09/08 04:07:32;;;;;;;16.00;5.65;;;;;;;;;;4390488;32;20463;-69
2022/09/08 04:09:58;;;;;;;17.45;6.18;;;;;;;;;;4377384;32;20027;-68
2022/09/08 04:12:23;;;;;;;12.43;5.85;;;;;;;;;;4389157;32;20389;-68
2022/09/08 04:14:49;;;;;;;13.15;5.93;;;;;;;;;;4389317;32;20098;-69
2022/09/08 04:17:14;;;;;;;17.95;8.32;;;;;;;;;;4391677;32;20061;-68
2022/09/08 04:19:39;;;;;;;17.87;7.85;;;;;;;;;;4389254;32;20084;-69
2022/09/08 04:22:06;;;;;;;14.63;7.60;;;;;;;;;;4389638;32;20022;-68
2022/09/08 04:24:31;;;;;;;16.70;7.95;;;;;;;;;;4388920;32;20135;-69
2022/09/08 04:26:57;;;;;;;15.10;7.45;;;;;;;;;;4392249;32;20310;-68
2022/09/08 04:29:22;;;;;;;16.70;8.77;;;;;;;;;;4390065;32;20069;-66
2022/09/08 04:31:49;;;;;;;14.90;8.02;;;;;;;;;;4390776;32;20422;-66
2022/09/08 04:34:14;;;;;;;15.50;7.30;;;;;;;;;;4390069;32;20065;-68
2022/09/08 04:36:40;;;;;;;17.30;9.05;;;;;;;;;;4377169;32;20050;-66
2022/09/08 04:39:05;;;;;;;18.40;8.52;;;;;;;;;;4391522;32;20043;-67
2022/09/08 04:41:31;;;;;;;18.08;8.50;;;;;;;;;;4391744;32;20401;-67
2022/09/08 04:43:57;;;;;;;18.10;9.05;;;;;;;;;;4390168;32;20127;-65
2022/09/08 04:46:23;;;;;;;20.80;9.85;;;;;;;;;;4389821;32;20053;-67
2022/09/08 04:48:48;;;;;;;21.07;10.30;;;;;;;;;;4377534;32;20039;-67
2022/09/08 04:51:15;;;;;;;25.20;9.82;;;;;;;;;;4391795;32;20127;-67
2022/09/08 04:53:41;;;;;;;17.85;9.00;;;;;;;;;;4391679;32;20061;-67
2022/09/08 04:56:07;;;;;;;21.10;11.15;;;;;;;;;;4392022;32;20022;-67
2022/09/08 04:58:34;;;;;;;22.80;14.18;;;;;;;;;;4391931;32;20038;-68
2022/09/08 05:01:19;;;;;;;17.65;10.38;;;;;;;;;;4391873;32;20497;-67
2022/09/08 05:03:44;;;;;;;17.92;10.27;;;;;;;;;;4389818;32;20060;-66
2022/09/08 05:06:11;;;;;;;19.55;10.48;;;;;;;;;;4391232;32;20046;-67
2022/09/08 05:08:36;;;;;;;23.70;10.90;;;;;;;;;;4389787;32;20027;-67
2022/09/08 05:11:02;;;;;;;18.12;11.30;;;;;;;;;;4377465;32;20053;-67
2022/09/08 05:13:27;;;;;;;21.70;10.73;;;;;;;;;;4384575;32;20096;-67
2022/09/08 05:15:59;;;;;;;18.73;10.95;;;;;;;;;;4375799;32;20038;-67
2022/09/08 05:18:24;;;;;;;25.30;12.90;;;;;;;;;;4375323;32;20066;-67
2022/09/08 05:20:53;;;;;;;19.00;12.00;;;;;;;;;;4376264;32;20089;-68
2022/09/08 05:23:18;;;;;;;17.92;11.77;;;;;;;;;;4376246;32;20180;-69
2022/09/08 05:25:43;;;;;;;19.48;12.15;;;;;;;;;;4386656;32;20519;-69
2022/09/08 05:28:08;;;;;;;25.33;14.98;;;;;;;;;;4375861;32;20213;-69
2022/09/08 05:30:34;;;;;;;21.97;13.73;;;;;;;;;;4376287;32;20521;-68
2022/09/08 05:32:59;;;;;;;29.70;15.15;;;;;;;;;;4390314;32;20186;-68
2022/09/08 05:35:24;;;;;;;23.05;14.05;;;;;;;;;;4389270;32;20538;-68
2022/09/08 05:37:49;;;;;;;23.80;15.68;;;;;;;;;;4390500;32;20076;-69
2022/09/08 05:40:14;;;;;;;31.85;16.62;;;;;;;;;;4378304;32;20221;-69
2022/09/08 05:42:40;;;;;;;25.05;15.35;;;;;;;;;;4363994;32;20110;-69
2022/09/08 05:45:05;;;;;;;28.63;15.80;;;;;;;;;;4382034;32;20053;-67
2022/09/08 05:47:30;;;;;;;24.37;14.00;;;;;;;;;;4393016;32;20135;-68
2022/09/08 05:49:56;;;;;;;26.08;14.15;;;;;;;;;;4393354;32;20427;-68
2022/09/08 05:52:21;;;;;;;24.00;15.38;;;;;;;;;;4391835;32;20022;-68
2022/09/08 05:54:46;;;;;;;24.77;16.58;;;;;;;;;;4393335;32;20049;-68
2022/09/08 05:57:11;;;;;;;25.73;16.13;;;;;;;;;;4394149;32;20636;-67
2022/09/08 05:59:36;;;;;;;20.25;11.25;;;;;;;;;;4393159;32;20172;-68
2022/09/08 06:02:01;;;;;;;13.13;8.05;;;;;;;;;;4393163;32;20026;-68
2022/09/08 06:04:27;;;;;;;16.12;8.23;;;;;;;;;;4391540;32;20064;-67
2022/09/08 06:06:52;;;;;;;18.05;9.00;;;;;;;;;;4391621;32;20376;-67
2022/09/08 06:09:17;;;;;;;12.35;9.02;;;;;;;;;;4392349;32;20031;-68
2022/09/08 06:11:42;;;;;;;16.23;9.20;;;;;;;;;;4392868;32;20034;-69
2022/09/08 06:14:08;;;;;;;15.50;10.13;;;;;;;;;;4393402;32;20417;-67
2022/09/08 06:16:33;;;;;;;15.30;10.68;;;;;;;;;;4393149;32;20043;-68
2022/09/08 06:19:00;;;;;;;15.50;10.88;;;;;;;;;;4393541;32;20050;-68
2022/09/08 06:21:26;;;;;;;15.88;10.70;;;;;;;;;;4393443;32;20440;-68
2022/09/08 06:23:53;;;;;;;13.80;10.63;;;;;;;;;;4379646;32;20030;-68
2022/09/08 06:26:33;;;;;;;16.50;11.20;;;;;;;;;;4391448;32;20061;-68
2022/09/08 06:29:14;;;;;;;18.37;13.90;;;;;;;;;;4391973;32;20027;-69
2022/09/08 06:31:44;;;;;;;18.90;14.93;;;;;;;;;;4392846;32;20377;-67
2022/09/08 06:34:13;;;;;;;22.37;16.35;;;;;;;;;;4393153;32;20132;-68
2022/09/08 06:36:47;;;;;;;22.33;15.68;;;;;;;;;;4391408;32;20052;-69
2022/09/08 06:39:17;;;;;;;17.98;14.10;;;;;;;;;;4391326;32;20463;-68
2022/09/08 06:41:45;;;;;;;20.55;14.63;;;;;;;;;;4393247;32;20389;-68
2022/09/08 06:44:20;;;;;;;18.87;14.85;;;;;;;;;;4391660;32;20030;-68
2022/09/08 06:46:46;;;;;;;18.75;14.02;;;;;;;;;;4379277;32;20065;-68
2022/09/08 06:49:11;;;;;;;14.70;12.27;;;;;;;;;;4392854;32;20027;-67
2022/09/08 06:51:45;;;;;;;19.70;12.85;;;;;;;;;;4391625;32;20127;-67
2022/09/08 06:54:20;;;;;;;21.85;13.43;;;;;;;;;;4393220;32;20144;-68
2022/09/08 06:57:05;;;;;;;16.75;12.32;;;;;;;;;;4391641;32;20163;-69
2022/09/08 06:59:33;;;;;;;19.27;13.35;;;;;;;;;;4392982;32;20076;-68
2022/09/08 07:01:58;;;;;;;18.08;14.38;;;;;;;;;;4377384;32;20044;-68
2022/09/08 07:04:42;;;;;;;18.35;12.95;;;;;;;;;;4391144;32;20038;-68
2022/09/08 07:07:07;;;;;;;14.50;11.50;;;;;;;;;;4391078;32;20450;-68
2022/09/08 07:09:39;;;;;;;16.17;12.40;;;;;;;;;;4393330;32;20023;-68
2022/09/08 07:12:23;;;;;;;19.67;12.13;;;;;;;;;;4391169;32;20301;-68
2022/09/08 07:14:48;;;;;;;19.05;11.38;;;;;;;;;;4393195;32;20030;-67
2022/09/08 07:17:22;;;;;;;21.95;17.12;;;;;;;;;;4392660;32;20460;-68
2022/09/08 07:19:49;;;;;;;15.85;11.82;;;;;;;;;;4392444;32;20149;-68
2022/09/08 07:22:14;;;;;;;15.90;12.80;;;;;;;;;;4392299;32;20100;-68
2022/09/08 07:24:41;;;;;;;19.67;12.20;;;;;;;;;;4390981;32;20049;-68
2022/09/08 07:27:10;;;;;;;20.58;12.85;;;;;;;;;;4392362;32;20126;-68
2022/09/08 07:29:40;;;;;;;14.60;12.05;;;;;;;;;;4391713;32;20061;-68
2022/09/08 07:32:09;;;;;;;20.35;13.38;;;;;;;;;;4392571;32;20062;-68
2022/09/08 07:34:41;;;;;;;18.60;13.62;;;;;;;;;;4392430;32;20123;-68
2022/09/08 07:37:06;;;;;;;16.60;13.82;;;;;;;;;;4391381;32;20049;-68
2022/09/08 07:40:07;;;;;;;19.55;14.43;;;;;;;;;;4391464;32;20058;-68
2022/09/08 07:42:33;;;;;;;34.58;20.08;;;;;;;;;;4347264;33;20034;-67
2022/09/08 07:45:00;;;;;;;23.20;18.00;;;;;;;;;;4370498;32;20026;-68
2022/09/08 07:47:41;;;;;;;27.13;21.75;;;;;;;;;;4392165;32;20386;-68
2022/09/08 07:50:15;;;;;;;29.65;21.85;;;;;;;;;;4392820;32;20027;-68
2022/09/08 07:52:40;;;;;;;27.50;18.05;;;;;;;;;;4392606;32;20023;-69
2022/09/08 07:55:13;;;;;;;22.23;15.18;;;;;;;;;;4390738;32;20022;-69
2022/09/08 07:57:44;;;;;;;16.42;9.68;;;;;;;;;;4391209;32;20130;-69
2022/09/08 08:00:11;;;;;;;16.45;9.13;;;;;;;;;;4377811;32;20133;-69
2022/09/08 08:02:50;;;;;;;12.70;7.60;;;;;;;;;;4376270;32;20027;-69
2022/09/08 08:05:20;;;;;;;13.05;7.50;;;;;;;;;;4392462;32;20057;-70
2022/09/08 08:07:51;;;;;;;11.50;6.70;;;;;;;;;;4390239;32;20431;-69
2022/09/08 08:10:24;;;;;;;11.77;6.57;;;;;;;;;;4392225;32;20384;-70
2022/09/08 08:12:52;;;;;;;13.93;7.18;;;;;;;;;;4392127;32;20027;-70
2022/09/08 08:15:21;;;;;;;14.35;9.88;;;;;;;;;;4390774;32;20393;-69
2022/09/08 08:17:52;;;;;;;15.40;11.32;;;;;;;;;;4377742;32;20087;-70
2022/09/08 08:20:34;;;;;;;12.13;10.38;;;;;;;;;;4372223;32;20364;-69
2022/09/08 08:23:18;;;;;;;14.25;10.85;;;;;;;;;;4388075;32;20110;-69
2022/09/08 08:25:44;;;;;;;15.35;10.40;;;;;;;;;;4388424;32;20077;-69
2022/09/08 08:28:17;;;;;;;14.52;11.65;;;;;;;;;;4374936;32;20462;-70
2022/09/08 08:30:54;;;;;;;15.18;12.68;;;;;;;;;;4390336;32;20150;-70
2022/09/08 08:33:22;;;;;;;14.95;12.02;;;;;;;;;;4388420;32;20076;-70
2022/09/08 08:35:50;;;;;;;18.10;13.82;;;;;;;;;;4389424;32;20388;-69
2022/09/08 08:38:17;;;;;;;17.48;14.73;;;;;;;;;;4389141;32;20156;-69
2022/09/08 08:40:53;;;;;;;19.35;14.40;;;;;;;;;;4390491;32;20068;-69
2022/09/08 08:43:24;;;;;;;15.32;13.70;;;;;;;;;;4386766;32;20039;-69
2022/09/08 08:46:05;;;;;;;15.35;12.80;;;;;;;;;;4374709;32;20084;-69
2022/09/08 08:48:33;;;;;;;17.02;13.93;;;;;;;;;;4391851;32;20401;-68
2022/09/08 08:51:04;;;;;;;15.80;13.88;;;;;;;;;;4388928;32;20080;-70
2022/09/08 08:53:48;;;;;;;17.75;14.18;;;;;;;;;;4389534;32;20034;-71
2022/09/08 08:56:22;;;;;;;21.12;13.60;;;;;;;;;;4375422;32;20058;-70
2022/09/08 08:58:48;;;;;;;17.48;14.02;;;;;;;;;;4389556;32;20057;-70
2022/09/08 09:01:15;;;;;;;15.30;13.27;;;;;;;;;;4389672;32;20034;-70
2022/09/08 09:03:43;;;;;;;16.35;13.55;;;;;;;;;;4390621;32;20042;-70
2022/09/08 09:06:11;;;;;;;19.05;12.90;;;;;;;;;;4389895;32;20090;-70
2022/09/08 09:08:39;;;;;;;17.27;12.85;;;;;;;;;;4389523;32;20061;-70
2022/09/08 09:11:15;;;;;;;13.43;11.38;;;;;;;;;;4375934;32;20136;-69
2022/09/08 09:13:43;;;;;;;16.60;11.57;;;;;;;;;;4392516;32;20121;-70
2022/09/08 09:16:14;;;;;;;15.60;11.00;;;;;;;;;;4391188;32;20085;-70
2022/09/08 09:18:55;;;;;;;13.40;11.15;;;;;;;;;;4388711;32;20054;-70
2022/09/08 09:21:48;;;;;;;12.15;10.73;;;;;;;;;;4390271;32;20043;-70
2022/09/08 09:24:13;;;;;;;16.52;10.48;;;;;;;;;;4392347;32;20393;-69
2022/09/08 09:26:44;;;;;;;15.23;10.10;;;;;;;;;;4392715;32;20057;-69
2022/09/08 09:29:10;;;;;;;17.20;8.93;;;;;;;;;;4392171;32;20034;-70
2022/09/08 09:31:45;;;;;;;10.82;7.40;;;;;;;;;;4392510;32;20026;-70
2022/09/08 09:34:13;;;;;;;16.17;6.40;;;;;;;;;;4380537;32;20050;-70
2022/09/08 09:36:45;;;;;;;8.23;6.28;;;;;;;;;;4366962;32;20031;-69
2022/09/08 09:39:16;;;;;;;12.35;5.80;;;;;;;;;;4366812;32;20313;-69
2022/09/08 09:41:52;;;;;;;10.27;4.95;;;;;;;;;;4394231;32;20030;-70
2022/09/08 09:44:37;;;;;;;12.37;5.43;;;;;;;;;;4378741;32;20031;-69
2022/09/08 09:47:14;;;;;;;9.13;5.25;;;;;;;;;;4392136;32;20841;-69
2022/09/08 09:49:57;;;;;;;9.40;6.07;;;;;;;;;;4394037;32;20049;-70
2022/09/08 09:52:31;;;;;;;13.27;6.32;;;;;;;;;;4392803;32;20023;-69
2022/09/08 09:55:15;;;;;;;11.20;6.80;;;;;;;;;;4378789;32;20026;-69
2022/09/08 09:57:52;;;;;;;8.73;5.53;;;;;;;;;;4379356;32;20053;-71
2022/09/08 10:00:17;;;;;;;12.57;6.70;;;;;;;;;;4392298;32;20090;-71
2022/09/08 10:02:52;;;;;;;11.12;5.87;;;;;;;;;;4391605;32;20089;-72
2022/09/08 10:05:23;;;;;;;11.35;6.40;;;;;;;;;;4378568;32;20135;-71
2022/09/08 10:08:11;;;;;;;13.20;5.85;;;;;;;;;;4377473;32;20031;-70
2022/09/08 10:10:47;;;;;;;10.23;5.12;;;;;;;;;;4377171;32;20022;-69
2022/09/08 10:13:31;;;;;;;9.52;4.62;;;;;;;;;;4378903;32;20026;-69
2022/09/08 10:16:14;;;;;;;9.60;4.47;;;;;;;;;;4377703;32;20101;-68
2022/09/08 10:18:58;;;;;;;8.73;4.22;;;;;;;;;;4376758;32;20031;-69
2022/09/08 10:21:23;;;;;;;8.73;3.60;;;;;;;;;;4363030;32;20063;-70
2022/09/08 10:23:51;;;;;;;11.47;3.33;;;;;;;;;;4376513;32;20365;-69
2022/09/08 10:26:30;;;;;;;6.03;2.62;;;;;;;;;;4372096;32;20152;-69
2022/09/08 10:28:55;;;;;;;10.38;2.67;;;;;;;;;;4392875;32;20062;-70
2022/09/08 10:31:33;;;;;;;11.57;2.35;;;;;;;;;;4392267;32;20022;-70
2022/09/08 10:34:27;;;;;;;11.90;3.17;;;;;;;;;;4378333;32;20080;-69
2022/09/08 10:36:59;;;;;;;6.12;2.50;;;;;;;;;;4363481;32;20418;-69
2022/09/08 10:39:34;;;;;;;10.50;3.15;;;;;;;;;;4394799;32;20035;-69
2022/09/08 10:42:02;;;;;;;7.00;2.78;;;;;;;;;;4379720;32;20035;-70
2022/09/08 10:44:49;;;;;;;8.02;3.33;;;;;;;;;;4392425;32;20119;-69
2022/09/08 10:47:29;;;;;;;11.02;3.47;;;;;;;;;;4392073;32;20018;-71
2022/09/08 10:50:01;;;;;;;11.80;3.45;;;;;;;;;;4393658;32;20062;-70
2022/09/08 10:52:26;;;;;;;12.05;3.80;;;;;;;;;;4392405;32;20023;-71
2022/09/08 10:54:58;;;;;;;9.27;3.75;;;;;;;;;;4392690;32;20126;-70
2022/09/08 10:57:35;;;;;;;9.70;3.20;;;;;;;;;;4376816;32;20027;-70
2022/09/08 11:00:00;;;;;;;12.45;3.92;;;;;;;;;;4376672;32;20023;-70
2022/09/08 11:02:37;;;;;;;14.48;3.70;;;;;;;;;;4378083;32;20157;-69
2022/09/08 11:05:15;;;;;;;12.90;3.65;;;;;;;;;;4380357;32;20407;-70
2022/09/08 11:07:51;;;;;;;14.75;4.50;;;;;;;;;;4389911;32;20105;-68
2022/09/08 11:10:35;;;;;;;12.05;3.87;;;;;;;;;;4392503;32;20049;-69
2022/09/08 11:13:03;;;;;;;8.85;3.90;;;;;;;;;;4391562;32;20057;-68
2022/09/08 11:15:31;;;;;;;10.63;4.35;;;;;;;;;;4377287;32;20365;-68
2022/09/08 11:18:19;;;;;;;7.82;3.25;;;;;;;;;;4391298;32;20046;-68
2022/09/08 11:20:50;;;;;;;11.65;3.60;;;;;;;;;;4389361;32;20144;-69
2022/09/08 11:23:39;;;;;;;11.25;3.45;;;;;;;;;;4388704;32;20094;-70
2022/09/08 11:26:09;;;;;;;12.55;3.83;;;;;;;;;;4388307;32;20153;-70
2022/09/08 11:28:53;;;;;;;16.15;4.22;;;;;;;;;;4391278;32;20026;-69
2022/09/08 11:31:34;;;;;;;9.52;3.40;;;;;;;;;;4388918;32;20368;-71
2022/09/08 11:33:59;;;;;;;11.85;3.72;;;;;;;;;;4376407;32;20080;-69
2022/09/08 11:36:42;;;;;;;13.30;5.28;;;;;;;;;;4392064;32;20477;-69
2022/09/08 11:39:23;;;;;;;12.93;5.05;;;;;;;;;;4389536;32;20264;-69
2022/09/08 11:41:55;;;;;;;6.90;3.83;;;;;;;;;;4392825;32;20095;-69
2022/09/08 11:44:29;;;;;;;6.57;3.37;;;;;;;;;;4391386;32;20030;-70
2022/09/08 11:47:10;;;;;;;11.12;4.18;;;;;;;;;;4390331;32;20027;-67
2022/09/08 11:49:41;;;;;;;12.65;3.58;;;;;;;;;;4389180;32;20081;-66
2022/09/08 11:52:41;;;;;;;8.32;3.60;;;;;;;;;;4392227;32;20424;-67
2022/09/08 11:55:27;;;;;;;10.40;3.40;;;;;;;;;;4328017;33;20035;-67
2022/09/08 11:58:10;;;;;;;17.12;3.35;;;;;;;;;;4351015;32;20409;-67
2022/09/08 12:00:54;;;;;;;11.18;3.15;;;;;;;;;;4389268;32;20139;-65
2022/09/08 12:03:40;;;;;;;9.02;2.83;;;;;;;;;;4390191;32;20084;-66
2022/09/08 12:06:25;;;;;;;9.20;2.95;;;;;;;;;;4389939;32;20364;-67
2022/09/08 12:09:04;;;;;;;10.88;3.83;;;;;;;;;;4375628;32;20074;-67
2022/09/08 12:11:35;;;;;;;8.18;2.90;;;;;;;;;;4391761;32;20420;-67
2022/09/08 12:14:13;;;;;;;5.15;2.62;;;;;;;;;;4392452;32;20054;-67
2022/09/08 12:16:53;;;;;;;10.50;2.97;;;;;;;;;;4364367;32;20031;-66
2022/09/08 12:19:26;;;;;;;11.07;2.90;;;;;;;;;;4377840;32;20407;-67
2022/09/08 12:22:01;;;;;;;11.57;3.20;;;;;;;;;;4390931;32;20384;-66
2022/09/08 12:24:26;;;;;;;8.13;2.50;;;;;;;;;;4390594;32;20070;-67
2022/09/08 12:27:06;;;;;;;6.93;2.70;;;;;;;;;;4388076;32;20034;-65
2022/09/08 12:29:40;;;;;;;12.75;3.65;;;;;;;;;;4387619;32;20064;-65
2022/09/08 12:32:24;;;;;;;12.68;4.10;;;;;;;;;;4390817;32;20061;-66
2022/09/08 12:35:05;;;;;;;11.02;2.87;;;;;;;;;;4389363;32;20067;-66
2022/09/08 12:37:49;;;;;;;7.50;2.58;;;;;;;;;;4376908;32;20048;-67
2022/09/08 12:40:32;;;;;;;10.30;2.58;;;;;;;;;;4391063;32;20034;-66
2022/09/08 12:43:16;;;;;;;6.35;2.35;;;;;;;;;;4382918;32;20092;-68
2022/09/08 12:45:48;;;;;;;7.05;2.37;;;;;;;;;;4387265;32;20080;-67
2022/09/08 12:48:32;;;;;;;6.03;2.03;;;;;;;;;;4376272;32;20066;-66
2022/09/08 12:51:16;;;;;;;11.12;2.95;;;;;;;;;;4374828;32;20042;-67
2022/09/08 12:53:54;;;;;;;7.55;3.28;;;;;;;;;;4384057;32;20456;-66
2022/09/08 12:56:38;;;;;;;8.30;2.67;;;;;;;;;;4383719;32;20439;-68
2022/09/08 12:59:22;;;;;;;7.80;2.95;;;;;;;;;;4386098;32;20478;-66
2022/09/08 13:02:05;;;;;;;8.25;2.50;;;;;;;;;;4391146;32;20450;-68
2022/09/08 13:04:47;;;;;;;7.37;2.65;;;;;;;;;;4391251;32;20057;-65
2022/09/08 13:07:13;;;;;;;11.02;4.10;;;;;;;;;;4391764;32;20084;-66
2022/09/08 13:09:49;;;;;;;12.05;4.07;;;;;;;;;;4390717;32;20097;-66
2022/09/08 13:12:24;;;;;;;12.30;3.92;;;;;;;;;;4376006;32;20083;-68
2022/09/08 13:14:50;;;;;;;;;;;;;;;;;;4391476;32;20056;-68
2022/09/08 13:17:23;;;;;;;9.02;2.90;;;;;;;;;;4389595;32;19938;-68
2022/09/08 13:20:05;;;;;;;8.43;2.87;;;;;;;;;;4391568;32;20113;-67
2022/09/08 13:22:44;;;;;;;14.68;2.87;;;;;;;;;;4391289;32;20053;-67
2022/09/08 13:25:09;;;;;;;10.38;2.62;;;;;;;;;;4389540;32;20023;-66
2022/09/08 13:27:34;;;;;;;8.35;2.47;;;;;;;;;;4389712;32;20026;-67
2022/09/08 13:30:14;;;;;;;10.68;3.05;;;;;;;;;;4375872;32;20053;-66
2022/09/08 13:32:39;;;;;;;7.22;2.40;;;;;;;;;;4390983;32;20035;-66
2022/09/08 13:35:16;;;;;;;7.40;2.07;;;;;;;;;;4373742;32;20221;-67
2022/09/08 13:37:44;;;;;;;6.90;2.20;;;;;;;;;;4387613;32;20176;-66
2022/09/08 13:40:09;;;;;;;6.35;2.17;;;;;;;;;;4388713;32;20443;-66
2022/09/08 13:42:53;;;;;;;6.57;2.20;;;;;;;;;;4377055;32;20083;-66
2022/09/08 13:45:31;;;;;;;8.57;2.85;;;;;;;;;;4389662;32;20026;-66
2022/09/08 13:48:15;;;;;;;5.53;2.25;;;;;;;;;;4391398;32;20049;-66
2022/09/08 13:50:55;;;;;;;7.20;2.28;;;;;;;;;;4391172;32;20030;-66
2022/09/08 13:53:32;;;;;;;13.77;2.58;;;;;;;;;;4389792;32;20056;-66
2022/09/08 13:56:20;;;;;;;9.02;2.60;;;;;;;;;;4388565;32;20057;-66
2022/09/08 13:58:49;;;;;;;11.40;3.20;;;;;;;;;;4386914;32;20065;-67
2022/09/08 14:01:21;;;;;;;7.60;2.45;;;;;;;;;;4392897;32;20405;-66
2022/09/08 14:03:46;;;;;;;7.85;2.47;;;;;;;;;;4391935;32;20053;-67
2022/09/08 14:06:14;;;;;;;11.45;2.62;;;;;;;;;;4392067;32;20023;-67
2022/09/08 14:08:58;;;;;;;6.53;2.05;;;;;;;;;;4393597;32;20049;-68
2022/09/08 14:11:42;;;;;;;8.20;2.58;;;;;;;;;;4392268;32;20061;-69
2022/09/08 14:14:10;;;;;;;8.82;2.55;;;;;;;;;;4392691;32;20022;-67
2022/09/08 14:16:35;;;;;;;8.80;2.55;;;;;;;;;;4392668;32;20561;-68
2022/09/08 14:19:06;;;;;;;13.20;2.53;;;;;;;;;;4393320;32;20034;-68
2022/09/08 14:21:32;;;;;;;8.35;2.58;;;;;;;;;;4392973;32;20356;-66
2022/09/08 14:24:02;;;;;;;11.55;3.08;;;;;;;;;;4393550;32;20060;-68
2022/09/08 14:26:34;;;;;;;8.38;2.08;;;;;;;;;;4392927;32;20042;-68
2022/09/08 14:29:05;;;;;;;10.40;2.78;;;;;;;;;;4393385;32;20027;-68
2022/09/08 14:31:56;;;;;;;10.52;2.22;;;;;;;;;;4379203;32;20023;-67
2022/09/08 14:34:30;;;;;;;9.88;2.55;;;;;;;;;;4377171;32;20110;-68
2022/09/08 14:37:10;;;;;;;8.23;1.95;;;;;;;;;;4390241;32;20123;-68
2022/09/08 14:39:41;;;;;;;7.62;2.03;;;;;;;;;;4377294;32;20046;-68
2022/09/08 14:42:16;;;;;;;9.93;2.97;;;;;;;;;;4392043;32;20034;-67
2022/09/08 14:44:56;;;;;;;5.93;2.05;;;;;;;;;;4390340;32;20476;-67
2022/09/08 14:47:32;;;;;;;8.25;2.28;;;;;;;;;;4379676;32;20094;-66
2022/09/08 14:50:15;;;;;;;7.55;2.22;;;;;;;;;;4391688;32;20027;-67
2022/09/08 14:52:53;;;;;;;8.20;2.20;;;;;;;;;;4392629;32;20302;-65
2022/09/08 14:55:18;;;;;;;8.95;2.35;;;;;;;;;;4391788;32;20031;-68
2022/09/08 14:57:44;;;;;;;7.03;1.75;;;;;;;;;;4393365;32;20372;-68
2022/09/08 15:00:16;;;;;;;7.40;2.10;;;;;;;;;;4391719;32;20115;-67
2022/09/08 15:03:00;;;;;;;12.55;2.80;;;;;;;;;;4392262;32;20057;-69
2022/09/08 15:05:39;;;;;;;8.40;2.78;;;;;;;;;;4390442;32;20070;-66
2022/09/08 15:08:10;;;;;;;10.23;3.17;;;;;;;;;;4376921;32;20428;-67
2022/09/08 15:10:50;;;;;;;4.25;1.90;;;;;;;;;;4379238;32;20159;-66
2022/09/08 15:13:17;;;;;;;3.78;1.70;;;;;;;;;;4392376;32;20086;-67
2022/09/08 15:15:44;;;;;;;5.72;1.50;;;;;;;;;;4390669;32;20065;-67
2022/09/08 15:18:24;;;;;;;5.70;1.60;;;;;;;;;;4392191;32;20080;-68
2022/09/08 15:21:09;;;;;;;4.18;1.52;;;;;;;;;;4378957;32;20089;-67
2022/09/08 15:23:43;;;;;;;3.42;1.90;;;;;;;;;;4392313;32;20413;-67
2022/09/08 15:26:12;;;;;;;5.53;1.25;;;;;;;;;;4378339;32;20044;-67